In Rescue
 
Open Full Screen Window  High Contrast Mode
Wind Gusting 00 knots
05
September 19, 2019 5:27 PM EDT
Weather Information
Wind Direction
  130 °
Wind Speed
  05 kt (6 mph)
Wind Gust
  00 kt (0 mph)
Altimeter
30.12 in
Visibility
10 SM
Temperature
25° C
77° F
Dewpoint
13° C
55° F
Humidity
47%
1hr Rain Fall
00.00 in.
24hr Rain Fall
00.00 in.
Sky Condition
Clear
VFR

METAR KJYM 192127Z AUTO 13005KT 10SM CLR 25/13 A3012 RMK AO2 T02490125

FAA Disclaimer: The data displayed is for advisory purposes only and is not to be used for flight planning or operations.